createdAt,value
2023-09-08T00:00:31.169Z,1.880
2023-09-08T00:02:31.213Z,1.320
2023-09-08T00:03:31.386Z,1.720
2023-09-08T00:04:31.440Z,1.680
2023-09-08T00:05:31.667Z,1.928
2023-09-08T00:06:31.402Z,1.424
2023-09-08T00:08:30.865Z,2.160
2023-09-08T00:09:31.696Z,1.889
2023-09-08T00:10:31.561Z,1.871
2023-09-08T00:12:30.834Z,1.760
2023-09-08T00:13:31.804Z,1.360
2023-09-08T00:14:31.016Z,0.920
2023-09-08T00:15:31.669Z,1.770
2023-09-08T00:16:31.460Z,1.953
2023-09-08T00:18:30.872Z,2.200
2023-09-08T00:19:31.029Z,2.200
2023-09-08T00:20:30.800Z,1.040
2023-09-08T00:21:31.665Z,0.080
2023-09-08T00:22:31.492Z,0.000
2023-09-08T00:23:31.322Z,0.000
2023-09-08T00:25:30.804Z,0.000
2023-09-08T00:26:31.676Z,0.000
2023-09-08T00:27:31.396Z,0.000
2023-09-08T00:28:30.999Z,0.000
2023-09-08T00:29:31.273Z,0.000
2023-09-08T00:30:31.365Z,0.000
2023-09-08T00:31:31.480Z,0.000
2023-09-08T00:34:31.094Z,0.000
2023-09-08T00:35:31.955Z,0.000
2023-09-08T00:36:31.214Z,0.000
2023-09-08T00:39:31.530Z,0.000
2023-09-08T00:40:31.138Z,0.000
2023-09-08T00:42:31.534Z,0.000
2023-09-08T00:43:31.113Z,0.440
2023-09-08T00:44:30.754Z,1.160
2023-09-08T00:45:31.519Z,2.760
2023-09-08T00:46:31.617Z,2.920
2023-09-08T00:47:31.789Z,3.000
2023-09-08T00:48:30.964Z,2.640
2023-09-08T00:49:31.173Z,2.200
2023-09-08T00:50:30.903Z,1.480
2023-09-08T00:51:31.435Z,1.760
2023-09-08T00:52:30.991Z,1.360
2023-09-08T00:53:31.638Z,1.180
2023-09-08T00:54:31.381Z,0.854
2023-09-08T00:56:31.810Z,0.000
2023-09-08T00:57:30.861Z,0.000
2023-09-08T00:58:31.619Z,0.000
2023-09-08T00:59:31.565Z,0.000
2023-09-08T01:00:31.196Z,0.000
2023-09-08T01:01:31.063Z,0.000
2023-09-08T01:02:31.018Z,0.000
2023-09-08T01:03:31.533Z,0.000
2023-09-08T01:04:31.579Z,0.000
2023-09-08T01:05:30.823Z,0.200
2023-09-08T01:06:31.425Z,3.120
2023-09-08T01:08:30.932Z,3.280
2023-09-08T01:09:31.421Z,2.240
2023-09-08T01:10:31.490Z,2.400
2023-09-08T01:11:31.194Z,2.720
2023-09-08T01:12:30.847Z,1.880
2023-09-08T01:13:31.523Z,1.760
2023-09-08T01:15:30.730Z,0.440
2023-09-08T01:16:31.920Z,1.440
2023-09-08T01:17:30.854Z,0.480
2023-09-08T01:20:30.766Z,0.640
2023-09-08T01:21:31.544Z,0.320
2023-09-08T01:22:31.697Z,1.298
2023-09-08T01:23:31.403Z,0.244
2023-09-08T01:24:31.255Z,1.200
2023-09-08T01:25:31.059Z,1.720
2023-09-08T01:27:31.467Z,2.400
2023-09-08T01:28:31.201Z,1.600
2023-09-08T01:31:31.838Z,2.156
2023-09-08T01:32:31.365Z,1.560
2023-09-08T01:34:31.340Z,2.640
2023-09-08T01:35:31.030Z,1.360
2023-09-08T01:36:31.628Z,0.157
2023-09-08T01:37:31.335Z,0.569
2023-09-08T01:39:31.016Z,2.200
2023-09-08T01:40:30.709Z,1.600
2023-09-08T01:41:31.436Z,1.440
2023-09-08T01:43:30.703Z,1.840
2023-09-08T01:44:31.583Z,1.600
2023-09-08T01:45:31.766Z,0.866
2023-09-08T01:46:31.632Z,0.692
2023-09-08T01:47:31.832Z,1.259
2023-09-08T01:49:31.202Z,1.871
2023-09-08T01:50:30.774Z,2.200
2023-09-08T01:51:31.489Z,2.400
2023-09-08T01:53:30.821Z,1.040
2023-09-08T01:54:31.437Z,0.200
2023-09-08T01:55:31.389Z,0.000
2023-09-08T01:57:30.750Z,0.920
2023-09-08T01:58:31.478Z,0.280
2023-09-08T01:59:31.601Z,0.000
2023-09-08T02:00:31.359Z,0.285
2023-09-08T02:01:31.395Z,1.200
2023-09-08T02:02:31.384Z,1.240
2023-09-08T02:03:31.214Z,2.120
2023-09-08T02:04:31.187Z,2.080
2023-09-08T02:05:31.889Z,1.920
2023-09-08T02:06:31.290Z,1.440
2023-09-08T02:08:31.677Z,1.456
2023-09-08T02:09:31.269Z,0.773
2023-09-08T02:11:31.643Z,0.118
2023-09-08T02:12:31.363Z,0.163
2023-09-08T02:14:31.750Z,0.000
2023-09-08T02:15:31.922Z,0.039
2023-09-08T02:16:30.988Z,0.000
2023-09-08T02:17:30.956Z,0.040
2023-09-08T02:18:31.066Z,1.320
2023-09-08T02:19:31.564Z,1.640
2023-09-08T02:20:31.247Z,1.400
2023-09-08T02:21:31.081Z,1.040
2023-09-08T02:23:30.712Z,1.520
2023-09-08T02:24:31.629Z,1.840
2023-09-08T02:25:31.693Z,0.826
2023-09-08T02:26:31.277Z,0.692
2023-09-08T02:27:31.169Z,0.640
2023-09-08T02:29:30.937Z,1.360
2023-09-08T02:30:31.696Z,1.360
2023-09-08T02:31:30.794Z,1.560
2023-09-08T02:32:31.514Z,2.720
2023-09-08T02:33:31.817Z,2.597
2023-09-08T02:35:31.133Z,1.440
2023-09-08T02:36:31.383Z,1.360
2023-09-08T02:37:31.205Z,1.000
2023-09-08T02:40:31.309Z,0.000
2023-09-08T02:41:30.957Z,0.000
2023-09-08T02:42:31.282Z,0.000
2023-09-08T02:43:31.294Z,0.000
2023-09-08T02:46:31.089Z,0.000
2023-09-08T02:48:30.780Z,0.000
2023-09-08T02:49:30.814Z,0.000
2023-09-08T02:50:30.880Z,0.000
2023-09-08T02:51:30.823Z,0.000
2023-09-08T02:52:31.671Z,0.000
2023-09-08T02:53:31.348Z,0.000
2023-09-08T02:56:31.265Z,0.000
2023-09-08T02:57:30.915Z,0.280
2023-09-08T02:58:31.718Z,1.200
2023-09-08T02:59:31.150Z,1.440
2023-09-08T03:01:31.951Z,0.039
2023-09-08T03:02:31.202Z,0.000
2023-09-08T03:06:31.174Z,0.000
2023-09-08T03:07:30.819Z,0.000
2023-09-08T03:08:31.589Z,0.000
2023-09-08T03:09:31.226Z,0.000
2023-09-08T03:12:31.260Z,0.000
2023-09-08T03:13:30.863Z,0.000
2023-09-08T03:14:31.628Z,0.000
2023-09-08T03:15:31.395Z,0.000
2023-09-08T03:17:31.430Z,0.000
2023-09-08T03:18:31.462Z,0.000
2023-09-08T03:19:31.240Z,0.000
2023-09-08T03:21:30.739Z,0.000
2023-09-08T03:22:31.382Z,0.000
2023-09-08T03:23:31.032Z,0.800
2023-09-08T03:24:31.184Z,1.240
2023-09-08T03:25:30.937Z,0.480
2023-09-08T03:26:31.566Z,0.000
2023-09-08T03:27:31.399Z,0.000
2023-09-08T03:28:31.017Z,0.000
2023-09-08T03:30:31.658Z,2.243
2023-09-08T03:31:31.412Z,2.075
2023-09-08T03:34:31.259Z,1.160
2023-09-08T03:35:31.305Z,0.040
2023-09-08T03:36:30.941Z,0.000
2023-09-08T03:37:30.887Z,0.000
2023-09-08T03:38:31.551Z,0.000
2023-09-08T03:39:30.815Z,0.000
2023-09-08T03:40:31.509Z,0.000
2023-09-08T03:41:31.050Z,0.000
2023-09-08T03:42:31.626Z,0.000
2023-09-08T03:43:31.384Z,0.000
2023-09-08T03:45:31.696Z,0.000
2023-09-08T03:46:30.862Z,0.000
2023-09-08T03:47:31.464Z,0.000
2023-09-08T03:48:30.833Z,0.000
2023-09-08T03:49:31.522Z,0.000
2023-09-08T03:51:30.985Z,0.760
2023-09-08T03:52:31.638Z,0.866
2023-09-08T03:53:31.244Z,0.285
2023-09-08T03:54:31.412Z,0.000
2023-09-08T03:55:31.050Z,0.000
2023-09-08T03:56:31.793Z,0.000
2023-09-08T03:57:31.578Z,0.000
2023-09-08T03:58:31.726Z,0.000
2023-09-08T04:00:30.952Z,0.000
2023-09-08T04:01:31.694Z,0.511
2023-09-08T04:02:31.854Z,1.342
2023-09-08T04:03:31.283Z,2.320
2023-09-08T04:05:31.746Z,1.652
2023-09-08T04:06:31.535Z,2.156
2023-09-08T04:09:30.768Z,1.560
2023-09-08T04:10:31.511Z,1.640
2023-09-08T04:11:31.148Z,1.440
2023-09-08T04:12:31.227Z,1.320
2023-09-08T04:13:30.924Z,0.160
2023-09-08T04:14:31.669Z,0.000
2023-09-08T04:15:31.595Z,0.000
2023-09-08T04:17:31.002Z,0.000
2023-09-08T04:18:31.585Z,0.000
2023-09-08T04:19:31.650Z,0.000
2023-09-08T04:20:31.228Z,0.000
2023-09-08T04:22:31.662Z,0.000
2023-09-08T04:23:31.674Z,0.000
2023-09-08T04:24:31.791Z,0.000
2023-09-08T04:25:31.515Z,0.000
2023-09-08T04:27:30.902Z,0.040
2023-09-08T04:28:31.534Z,0.000
2023-09-08T04:29:31.137Z,0.400
2023-09-08T04:30:31.008Z,0.600
2023-09-08T04:31:31.359Z,0.960
2023-09-08T04:32:31.354Z,0.880
2023-09-08T04:33:31.403Z,1.760
2023-09-08T04:36:31.341Z,1.360
2023-09-08T04:37:31.018Z,0.680
2023-09-08T04:38:31.602Z,0.800
2023-09-08T04:39:31.389Z,0.560
2023-09-08T04:40:31.395Z,0.080
2023-09-08T04:41:31.082Z,0.000
2023-09-08T04:42:30.928Z,0.600
2023-09-08T04:43:30.997Z,0.280
2023-09-08T04:44:31.627Z,1.180
2023-09-08T04:45:31.301Z,0.692
2023-09-08T04:46:31.132Z,0.000
2023-09-08T04:47:31.219Z,0.000
2023-09-08T04:49:30.910Z,0.000
2023-09-08T04:50:30.766Z,0.000
2023-09-08T04:51:31.442Z,0.000
2023-09-08T04:52:31.121Z,0.000
2023-09-08T04:55:31.273Z,0.000
2023-09-08T04:57:31.033Z,0.200
2023-09-08T04:58:31.655Z,0.630
2023-09-08T04:59:31.244Z,0.285
2023-09-08T05:00:31.319Z,0.000
2023-09-08T05:02:31.920Z,0.039
2023-09-08T05:03:31.427Z,0.000
2023-09-08T05:07:31.325Z,0.000
2023-09-08T05:08:31.167Z,0.000
2023-09-08T05:09:30.878Z,0.000
2023-09-08T05:10:31.491Z,0.000
2023-09-08T05:13:35.602Z,0.000
2023-09-08T05:14:31.222Z,0.000
2023-09-08T05:16:31.032Z,0.000
2023-09-08T05:18:31.677Z,0.000
2023-09-08T05:19:31.470Z,0.040
2023-09-08T05:21:31.783Z,0.708
2023-09-08T05:23:31.374Z,1.180
2023-09-08T05:24:31.003Z,1.240
2023-09-08T05:25:31.758Z,0.944
2023-09-08T05:26:31.395Z,0.447
2023-09-08T05:27:31.029Z,0.480
2023-09-08T05:29:31.576Z,0.000
2023-09-08T05:30:31.140Z,0.000
2023-09-08T05:31:30.839Z,0.640
2023-09-08T05:32:31.913Z,1.200
2023-09-08T05:33:31.154Z,0.640
2023-09-08T05:35:31.685Z,0.590
2023-09-08T05:36:31.331Z,0.244
2023-09-08T05:37:31.564Z,0.480
2023-09-08T05:39:31.548Z,0.160
2023-09-08T05:40:31.262Z,0.000
2023-09-08T05:41:31.105Z,0.000
2023-09-08T05:43:31.596Z,0.040
2023-09-08T05:44:31.682Z,0.000
2023-09-08T05:45:31.293Z,0.203
2023-09-08T05:46:31.027Z,0.800
2023-09-08T05:47:31.489Z,0.000
2023-09-08T05:48:31.510Z,0.040
2023-09-08T05:50:31.508Z,0.080
2023-09-08T05:51:31.090Z,0.040
2023-09-08T05:52:31.837Z,0.079
2023-09-08T05:53:31.869Z,0.800
2023-09-08T05:54:31.052Z,0.407
2023-09-08T05:57:31.037Z,1.520
2023-09-08T05:58:31.720Z,0.197
2023-09-08T05:59:30.845Z,0.041
2023-09-08T06:01:31.569Z,0.000
2023-09-08T06:02:31.784Z,0.240
2023-09-08T06:03:31.412Z,0.720
2023-09-08T06:04:31.406Z,0.360
2023-09-08T06:05:31.317Z,0.480
2023-09-08T06:06:30.996Z,0.400
2023-09-08T06:07:31.614Z,0.000
2023-09-08T06:08:31.401Z,0.081
2023-09-08T06:09:31.337Z,0.920
2023-09-08T06:10:31.724Z,0.590
2023-09-08T06:11:31.280Z,0.366
2023-09-08T06:13:30.879Z,0.000
2023-09-08T06:14:31.521Z,0.000
2023-09-08T06:15:31.207Z,0.000
2023-09-08T06:16:31.061Z,0.000
2023-09-08T06:17:30.954Z,0.000
2023-09-08T06:18:31.832Z,0.000
2023-09-08T06:19:31.023Z,0.000
2023-09-08T06:20:31.714Z,0.000
2023-09-08T06:22:31.242Z,1.302
2023-09-08T06:23:30.846Z,0.840
2023-09-08T06:25:31.544Z,0.320
2023-09-08T06:26:31.177Z,2.400
2023-09-08T06:28:30.745Z,1.640
2023-09-08T06:29:31.175Z,1.280
2023-09-08T06:30:31.720Z,1.416
2023-09-08T06:31:31.415Z,1.790
2023-09-08T06:32:31.433Z,2.600
2023-09-08T06:33:31.263Z,2.280
2023-09-08T06:35:31.782Z,1.849
2023-09-08T06:36:31.426Z,1.098
2023-09-08T06:37:31.688Z,0.984
2023-09-08T06:38:31.356Z,1.505
2023-09-08T06:39:30.877Z,2.280
2023-09-08T06:40:30.884Z,1.080
2023-09-08T06:41:31.520Z,2.520
2023-09-08T06:42:31.290Z,0.960
2023-09-08T06:43:31.234Z,1.160
2023-09-08T06:44:30.845Z,2.520
2023-09-08T06:45:31.537Z,2.400
2023-09-08T06:46:31.369Z,2.120
2023-09-08T06:47:31.515Z,1.560
2023-09-08T06:50:31.586Z,1.668
2023-09-08T06:51:31.715Z,2.321
2023-09-08T06:52:31.359Z,1.831
2023-09-08T06:53:31.101Z,1.400
2023-09-08T06:54:30.791Z,1.240
2023-09-08T06:55:31.410Z,2.080
2023-09-08T06:56:31.695Z,2.636
2023-09-08T06:57:31.534Z,3.824
2023-09-08T06:58:31.390Z,2.400
2023-09-08T07:01:32.111Z,1.692
2023-09-08T07:02:31.070Z,1.342
2023-09-08T07:04:31.190Z,1.080
2023-09-08T07:07:31.460Z,0.854
2023-09-08T07:08:30.762Z,1.200
2023-09-08T07:09:31.130Z,0.800
2023-09-08T07:10:30.834Z,0.440
2023-09-08T07:12:31.401Z,0.000
2023-09-08T07:13:31.106Z,0.000
2023-09-08T07:14:31.216Z,0.120
2023-09-08T07:15:30.859Z,1.000
2023-09-08T07:16:31.782Z,0.040
2023-09-08T07:17:31.654Z,1.240
2023-09-08T07:18:30.757Z,2.040
2023-09-08T07:19:31.662Z,0.800
2023-09-08T07:20:30.730Z,0.200
2023-09-08T07:21:31.431Z,1.280
2023-09-08T07:22:31.346Z,2.920
2023-09-08T07:25:31.707Z,1.889
2023-09-08T07:26:31.392Z,0.529
2023-09-08T07:29:31.097Z,1.760
2023-09-08T07:30:32.031Z,1.613
2023-09-08T07:31:31.418Z,1.383
2023-09-08T07:32:31.604Z,0.800
2023-09-08T07:33:31.729Z,1.338
2023-09-08T07:34:31.788Z,2.640
2023-09-08T07:35:31.458Z,4.800
2023-09-08T07:36:31.189Z,0.880
2023-09-08T07:37:30.972Z,1.200
2023-09-08T07:38:31.692Z,1.259
2023-09-08T07:39:31.138Z,2.115
2023-09-08T07:41:31.792Z,3.305
2023-09-08T07:43:31.305Z,4.320
2023-09-08T07:44:31.691Z,3.320
2023-09-08T07:45:30.778Z,3.040
2023-09-08T07:46:31.809Z,4.210
2023-09-08T07:47:34.198Z,4.200
2023-09-08T07:48:31.393Z,2.075
2023-09-08T07:51:30.777Z,3.240
2023-09-08T07:52:31.467Z,3.480
2023-09-08T07:53:31.169Z,3.040
2023-09-08T07:54:31.146Z,3.880
2023-09-08T07:56:31.390Z,5.080
2023-09-08T07:57:31.555Z,5.160
2023-09-08T07:58:31.336Z,5.880
2023-09-08T07:59:31.572Z,5.200
2023-09-08T08:00:31.099Z,4.280
2023-09-08T08:01:31.952Z,3.659
2023-09-08T08:02:31.290Z,3.824
2023-09-08T08:03:31.455Z,1.880
2023-09-08T08:04:31.678Z,4.400
2023-09-08T08:05:30.919Z,1.840
2023-09-08T08:06:30.898Z,5.320
2023-09-08T08:07:31.480Z,5.840
2023-09-08T08:08:31.138Z,4.640
2023-09-08T08:11:31.740Z,3.030
2023-09-08T08:12:31.702Z,2.400
2023-09-08T08:13:31.350Z,0.976
2023-09-08T08:14:30.942Z,2.800
2023-09-08T08:15:31.805Z,2.203
2023-09-08T08:16:31.623Z,2.400
2023-09-08T08:17:31.724Z,3.974
2023-09-08T08:18:31.951Z,1.280
2023-09-08T08:19:31.640Z,1.320
2023-09-08T08:21:31.752Z,4.120
2023-09-08T08:22:30.837Z,3.160
2023-09-08T08:23:31.650Z,3.934
2023-09-08T08:25:31.139Z,3.320
2023-09-08T08:26:30.892Z,3.640
2023-09-08T08:27:31.720Z,1.731
2023-09-08T08:28:31.669Z,3.880
2023-09-08T08:29:31.031Z,3.417
2023-09-08T08:30:31.744Z,3.423
2023-09-08T08:33:31.435Z,6.320
2023-09-08T08:34:31.570Z,4.720
2023-09-08T08:35:31.154Z,6.000
2023-09-08T08:36:30.944Z,5.920
2023-09-08T08:37:30.831Z,2.080
2023-09-08T08:38:31.502Z,2.240
2023-09-08T08:39:31.723Z,2.557
2023-09-08T08:40:31.370Z,2.969
2023-09-08T08:41:31.086Z,3.200
2023-09-08T08:42:30.830Z,2.120
2023-09-08T08:43:31.676Z,0.960
2023-09-08T08:45:31.502Z,1.680
2023-09-08T08:46:31.561Z,4.120
2023-09-08T08:48:31.610Z,1.560
2023-09-08T08:49:31.180Z,3.120
2023-09-08T08:51:31.042Z,2.360
2023-09-08T08:52:30.883Z,3.160
2023-09-08T08:53:31.245Z,5.440
2023-09-08T08:54:31.161Z,3.840
2023-09-08T08:55:31.010Z,2.680
2023-09-08T08:58:31.327Z,3.200
2023-09-08T08:59:31.518Z,4.280
2023-09-08T09:00:31.314Z,7.320
2023-09-08T09:01:31.103Z,6.680
2023-09-08T09:02:31.349Z,5.320
2023-09-08T09:03:31.399Z,4.800
2023-09-08T09:04:31.676Z,2.600
2023-09-08T09:06:31.380Z,4.160
2023-09-08T09:07:31.189Z,7.600
2023-09-08T09:09:31.494Z,5.360
2023-09-08T09:10:31.345Z,2.600
2023-09-08T09:11:31.102Z,5.880
2023-09-08T09:14:31.409Z,10.251
2023-09-08T09:15:31.616Z,7.320
2023-09-08T09:16:31.705Z,6.807
2023-09-08T09:18:31.974Z,2.360
2023-09-08T09:19:31.464Z,2.600
2023-09-08T09:20:30.841Z,5.560
2023-09-08T09:21:31.599Z,5.760
2023-09-08T09:22:31.271Z,7.520
2023-09-08T09:24:31.776Z,10.000
2023-09-08T09:25:31.366Z,7.800
2023-09-08T09:26:31.654Z,4.682
2023-09-08T09:28:32.327Z,9.280
2023-09-08T09:29:30.783Z,5.840
2023-09-08T09:30:31.517Z,8.840
2023-09-08T09:31:31.667Z,3.816
2023-09-08T09:32:31.255Z,2.847
2023-09-08T09:33:31.505Z,6.320
2023-09-08T09:34:30.800Z,9.520
2023-09-08T09:35:31.627Z,7.040
2023-09-08T09:38:30.937Z,6.549
2023-09-08T09:39:31.242Z,2.800
2023-09-08T09:40:31.124Z,8.280
2023-09-08T09:41:30.830Z,11.080
2023-09-08T09:42:31.536Z,6.760
2023-09-08T09:43:31.267Z,6.680
2023-09-08T09:46:30.734Z,6.020
2023-09-08T09:47:31.480Z,4.760
2023-09-08T09:48:31.321Z,3.920
2023-09-08T09:49:30.922Z,6.200
2023-09-08T09:50:30.934Z,4.640
2023-09-08T09:51:30.734Z,4.520
2023-09-08T09:52:31.459Z,2.280
2023-09-08T09:53:31.089Z,7.440
2023-09-08T09:54:30.846Z,3.840
2023-09-08T09:55:31.592Z,6.160
2023-09-08T09:56:31.210Z,6.080
2023-09-08T09:57:31.510Z,5.000
2023-09-08T09:58:31.253Z,6.120
2023-09-08T10:01:31.713Z,5.960
2023-09-08T10:02:32.965Z,5.115
2023-09-08T10:03:31.207Z,7.932
2023-09-08T10:04:31.621Z,9.167
2023-09-08T10:05:31.391Z,8.990
2023-09-08T10:06:31.156Z,7.680
2023-09-08T10:07:31.183Z,6.200
2023-09-08T10:08:30.852Z,2.640
2023-09-08T10:09:30.828Z,6.760
2023-09-08T10:10:31.603Z,11.331
2023-09-08T10:12:31.033Z,7.920
2023-09-08T10:13:31.174Z,7.400
2023-09-08T10:14:31.061Z,6.480
2023-09-08T10:15:31.910Z,3.580
2023-09-08T10:16:31.254Z,5.247
2023-09-08T10:17:31.073Z,5.120
2023-09-08T10:18:31.300Z,5.120
2023-09-08T10:19:31.303Z,4.720
2023-09-08T10:20:30.891Z,3.640
2023-09-08T10:21:31.655Z,7.080
2023-09-08T10:23:30.934Z,3.680
2023-09-08T10:24:31.775Z,4.682
2023-09-08T10:25:31.132Z,6.386
2023-09-08T10:28:31.685Z,8.420
2023-09-08T10:29:30.999Z,10.007
2023-09-08T10:33:31.897Z,8.970
2023-09-08T10:34:31.158Z,9.925
2023-09-08T10:37:31.131Z,5.920
2023-09-08T10:38:31.711Z,4.170
2023-09-08T10:39:31.556Z,6.753
2023-09-08T10:42:31.144Z,4.000
2023-09-08T10:44:32.949Z,5.040
2023-09-08T10:46:30.878Z,5.160
2023-09-08T10:47:31.167Z,5.520
2023-09-08T10:48:31.068Z,5.440
2023-09-08T10:49:31.077Z,5.920
2023-09-08T10:50:31.784Z,3.895
2023-09-08T10:51:31.440Z,6.997
2023-09-08T10:53:30.971Z,6.000
2023-09-08T10:54:31.584Z,8.223
2023-09-08T10:55:31.313Z,6.671
2023-09-08T10:58:32.697Z,3.069
2023-09-08T10:59:30.983Z,5.329
2023-09-08T11:00:31.711Z,3.974
2023-09-08T11:01:31.907Z,3.905
2023-09-08T11:02:30.984Z,4.760
2023-09-08T11:03:31.845Z,3.680
2023-09-08T11:04:31.183Z,4.680
2023-09-08T11:05:31.437Z,2.680
2023-09-08T11:07:31.807Z,3.148
2023-09-08T11:08:31.576Z,10.129
2023-09-08T11:11:31.800Z,6.807
2023-09-08T11:12:31.691Z,5.880
2023-09-08T11:14:31.573Z,7.280
2023-09-08T11:15:30.709Z,8.080
2023-09-08T11:16:31.445Z,5.160
2023-09-08T11:17:31.577Z,6.200
2023-09-08T11:18:31.049Z,3.920
2023-09-08T11:19:31.664Z,7.830
2023-09-08T11:20:31.380Z,8.583
2023-09-08T11:21:31.372Z,4.760
2023-09-08T11:22:31.298Z,3.360
2023-09-08T11:23:30.991Z,4.760
2023-09-08T11:24:32.427Z,6.334
2023-09-08T11:25:31.451Z,8.136
2023-09-08T11:27:31.039Z,4.640
2023-09-08T11:28:30.882Z,7.400
2023-09-08T11:29:31.515Z,8.160
2023-09-08T11:30:30.855Z,6.360
2023-09-08T11:31:31.782Z,9.639
2023-09-08T11:33:31.081Z,2.840
2023-09-08T11:35:30.805Z,7.440
2023-09-08T11:36:31.565Z,3.040
2023-09-08T11:38:31.154Z,2.760
2023-09-08T11:39:31.318Z,3.480
2023-09-08T11:40:30.957Z,5.440
2023-09-08T11:41:31.497Z,3.800
2023-09-08T11:42:31.246Z,3.760
2023-09-08T11:43:31.611Z,7.440
2023-09-08T11:44:31.411Z,4.600
2023-09-08T11:45:31.607Z,8.480
2023-09-08T11:46:31.648Z,9.160
2023-09-08T11:47:31.271Z,8.480
2023-09-08T11:48:31.356Z,8.320
2023-09-08T11:49:31.205Z,8.960
2023-09-08T11:51:31.274Z,6.680
2023-09-08T11:53:30.947Z,4.440
2023-09-08T11:54:31.384Z,5.080
2023-09-08T11:55:31.670Z,7.160
2023-09-08T11:56:31.665Z,6.374
2023-09-08T11:58:30.972Z,6.840
2023-09-08T11:59:30.860Z,3.960
2023-09-08T12:00:31.487Z,3.720
2023-09-08T12:01:31.281Z,4.560
2023-09-08T12:02:31.111Z,6.720
2023-09-08T12:04:31.375Z,2.520
2023-09-08T12:05:31.236Z,6.840
2023-09-08T12:06:31.245Z,12.800
2023-09-08T12:08:30.754Z,9.520
2023-09-08T12:09:30.997Z,9.760
2023-09-08T12:10:30.784Z,7.120
2023-09-08T12:11:31.425Z,4.480
2023-09-08T12:12:31.036Z,2.440
2023-09-08T12:13:31.637Z,5.036
2023-09-08T12:16:31.406Z,3.560
2023-09-08T12:17:31.532Z,5.280
2023-09-08T12:18:31.204Z,2.000
2023-09-08T12:19:30.914Z,6.600
2023-09-08T12:20:31.673Z,3.305
2023-09-08T12:21:31.278Z,7.281
2023-09-08T12:24:31.179Z,5.880
2023-09-08T12:25:30.799Z,6.000
2023-09-08T12:26:31.334Z,5.280
2023-09-08T12:27:30.893Z,5.720
2023-09-08T12:28:31.648Z,2.880
2023-09-08T12:29:31.332Z,6.600
2023-09-08T12:33:31.395Z,7.840
2023-09-08T12:34:31.144Z,8.480
2023-09-08T12:35:32.701Z,6.600
2023-09-08T12:36:31.623Z,7.987
2023-09-08T12:38:31.036Z,3.560
2023-09-08T12:39:31.412Z,4.600
2023-09-08T12:40:31.152Z,9.360
2023-09-08T12:44:31.358Z,5.760
2023-09-08T12:45:31.184Z,4.760
2023-09-08T12:49:31.793Z,4.210
2023-09-08T12:50:31.644Z,5.654
2023-09-08T12:51:31.310Z,6.480
2023-09-08T12:53:31.664Z,3.080
2023-09-08T12:54:30.753Z,5.000
2023-09-08T12:55:31.252Z,2.480
2023-09-08T12:57:31.567Z,5.160
2023-09-08T12:58:30.727Z,4.360
2023-09-08T12:59:31.074Z,4.320
2023-09-08T13:00:31.876Z,5.784
2023-09-08T13:01:31.735Z,5.720
2023-09-08T13:03:31.019Z,5.320
2023-09-08T13:04:31.116Z,1.840
2023-09-08T13:05:31.704Z,3.160
2023-09-08T13:06:31.279Z,2.120
2023-09-08T13:07:31.324Z,2.120
2023-09-08T13:08:31.607Z,1.960
2023-09-08T13:09:31.336Z,7.040
2023-09-08T13:10:31.428Z,7.520
2023-09-08T13:11:31.352Z,5.720
2023-09-08T13:13:31.080Z,8.000
2023-09-08T13:15:31.899Z,3.580
2023-09-08T13:18:31.726Z,5.960
2023-09-08T13:19:31.156Z,4.922
2023-09-08T13:21:30.817Z,4.800
2023-09-08T13:22:31.807Z,4.485
2023-09-08T13:23:31.677Z,2.640
2023-09-08T13:24:31.366Z,1.302
2023-09-08T13:25:31.613Z,1.680
2023-09-08T13:26:31.409Z,2.640
2023-09-08T13:27:30.967Z,3.000
2023-09-08T13:28:31.756Z,2.990
2023-09-08T13:29:31.666Z,3.760
2023-09-08T13:30:31.280Z,2.075
2023-09-08T13:31:30.967Z,2.360
2023-09-08T13:32:31.948Z,3.480
2023-09-08T13:33:31.297Z,4.720
2023-09-08T13:35:30.734Z,5.480
2023-09-08T13:36:31.414Z,6.880
2023-09-08T13:37:31.042Z,1.680
2023-09-08T13:39:31.013Z,2.840
2023-09-08T13:40:31.034Z,6.440
2023-09-08T13:41:31.102Z,6.920
2023-09-08T13:42:30.795Z,4.920
2023-09-08T13:43:31.889Z,7.240
2023-09-08T13:44:31.421Z,5.520
2023-09-08T13:45:31.962Z,4.643
2023-09-08T13:47:32.325Z,4.160
2023-09-08T13:48:33.461Z,6.000
2023-09-08T13:51:31.929Z,3.760
2023-09-08T13:52:32.405Z,2.400
2023-09-08T13:53:43.204Z,4.080
2023-09-08T13:55:38.467Z,3.040
2023-09-08T13:56:33.263Z,2.720
2023-09-08T13:57:34.230Z,3.400
2023-09-08T13:58:47.191Z,6.240
2023-09-08T14:00:38.291Z,7.444
2023-09-08T14:02:42.585Z,7.480
2023-09-08T14:03:56.745Z,5.760
2023-09-08T14:04:33.781Z,3.840
2023-09-08T14:05:37.820Z,3.600
2023-09-08T14:06:32.291Z,3.680
2023-09-08T14:12:14.138Z,1.440
2023-09-08T14:12:36.354Z,4.080
2023-09-08T14:13:31.378Z,3.480
2023-09-08T14:14:31.656Z,2.600
2023-09-08T14:16:30.984Z,2.080
2023-09-08T14:17:30.854Z,6.960
2023-09-08T14:18:31.464Z,9.960
2023-09-08T14:19:31.183Z,6.880
2023-09-08T14:20:30.997Z,4.560
2023-09-08T14:21:34.629Z,5.823
2023-09-08T14:22:31.298Z,5.898
2023-09-08T14:23:31.133Z,2.800
2023-09-08T14:24:31.731Z,3.895
2023-09-08T14:25:31.393Z,7.281
2023-09-08T14:26:30.943Z,6.240
2023-09-08T14:27:31.603Z,4.760
2023-09-08T14:28:31.299Z,2.840
2023-09-08T14:29:31.083Z,2.800
2023-09-08T14:30:30.997Z,1.560
2023-09-08T14:31:30.857Z,6.160
2023-09-08T14:32:31.766Z,6.240
2023-09-08T14:34:31.551Z,7.769
2023-09-08T14:35:31.298Z,5.920
2023-09-08T14:36:31.155Z,2.080
2023-09-08T14:38:31.575Z,2.480
2023-09-08T14:39:31.278Z,5.840
2023-09-08T14:40:30.878Z,5.280
2023-09-08T14:41:31.508Z,1.640
2023-09-08T14:44:31.014Z,3.600
2023-09-08T14:45:30.758Z,3.520
2023-09-08T14:46:31.506Z,3.240
2023-09-08T14:47:31.733Z,6.000
2023-09-08T14:49:30.785Z,5.320
2023-09-08T14:50:31.458Z,5.000
2023-09-08T14:51:31.282Z,3.320
2023-09-08T14:54:31.705Z,8.695
2023-09-08T14:55:31.334Z,6.753
2023-09-08T14:56:31.123Z,8.960
2023-09-08T14:57:31.824Z,7.554
2023-09-08T14:58:31.093Z,7.281
2023-09-08T14:59:31.664Z,5.075
2023-09-08T15:02:31.118Z,11.480
2023-09-08T15:03:31.247Z,11.040
2023-09-08T15:05:31.529Z,3.520
2023-09-08T15:06:31.115Z,2.280
2023-09-08T15:08:30.831Z,11.480
2023-09-08T15:09:31.641Z,6.520
2023-09-08T15:10:31.471Z,5.720
2023-09-08T15:11:31.611Z,5.548
2023-09-08T15:12:31.491Z,4.027
2023-09-08T15:13:31.319Z,7.200
2023-09-08T15:14:31.474Z,5.440
2023-09-08T15:15:31.126Z,6.040
2023-09-08T15:16:30.845Z,6.080
2023-09-08T15:17:31.011Z,5.320
2023-09-08T15:18:31.193Z,4.520
2023-09-08T15:19:31.339Z,5.440
2023-09-08T15:20:31.151Z,2.520
2023-09-08T15:21:31.331Z,3.560
2023-09-08T15:22:31.045Z,7.960
2023-09-08T15:23:31.736Z,7.200
2023-09-08T15:24:31.323Z,6.671
2023-09-08T15:27:31.510Z,4.200
2023-09-08T15:28:31.110Z,4.960
2023-09-08T15:29:30.730Z,5.680
2023-09-08T15:30:31.774Z,6.480
2023-09-08T15:31:30.887Z,5.600
2023-09-08T15:32:31.313Z,7.440
2023-09-08T15:33:31.239Z,7.040
2023-09-08T15:34:31.779Z,5.036
2023-09-08T15:35:31.388Z,6.020
2023-09-08T15:38:31.612Z,7.360
2023-09-08T15:39:31.390Z,8.908
2023-09-08T15:40:32.628Z,7.880
2023-09-08T15:41:31.298Z,7.280
2023-09-08T15:43:30.811Z,8.080
2023-09-08T15:44:31.338Z,5.160
2023-09-08T15:45:30.985Z,10.480
2023-09-08T15:46:31.355Z,4.520
2023-09-08T15:48:31.080Z,4.440
2023-09-08T15:49:30.824Z,3.880
2023-09-08T15:50:31.599Z,4.560
2023-09-08T15:51:31.589Z,4.200
2023-09-08T15:53:31.424Z,4.080
2023-09-08T15:54:31.216Z,5.480
2023-09-08T15:55:31.299Z,5.520
2023-09-08T15:56:31.134Z,5.800
2023-09-08T16:01:31.999Z,2.282
2023-09-08T16:02:31.617Z,3.458
2023-09-08T16:04:31.614Z,5.200
2023-09-08T16:05:31.491Z,5.640
2023-09-08T16:06:31.350Z,6.680
2023-09-08T16:07:31.336Z,7.400
2023-09-08T16:08:30.930Z,4.160
2023-09-08T16:09:31.632Z,5.784
2023-09-08T16:10:31.536Z,6.875
2023-09-08T16:12:30.937Z,5.400
2023-09-08T16:13:30.801Z,7.720
2023-09-08T16:14:31.236Z,7.520
2023-09-08T16:15:30.833Z,4.560
2023-09-08T16:16:31.539Z,6.720
2023-09-08T16:17:31.007Z,7.800
2023-09-08T16:19:31.594Z,6.400
2023-09-08T16:20:31.339Z,5.360
2023-09-08T16:21:31.302Z,8.040
2023-09-08T16:22:30.945Z,7.920
2023-09-08T16:23:31.932Z,6.728
2023-09-08T16:24:31.616Z,7.200
2023-09-08T16:25:31.257Z,3.320
2023-09-08T16:26:31.045Z,4.720
2023-09-08T16:27:31.110Z,7.400
2023-09-08T16:28:31.775Z,4.839